Time;durP1;ratioP1;P1;durP2;ratioP2;P2;SDS_P1;SDS_P2;PMS_P1;PMS_P2;Temp;Humidity;BMP_temperature;BMP_pressure;BME280_temperature;BME280_humidity;BME280_pressure;Samples;Min_cycle;Max_cycle;Signal;HPM_P1;HPM_P2
2023/06/18 00:01:26;;;;;;;;;;;;;;;15.99;83.12;100939.25;4186750;28;20031;-66
2023/06/18 00:03:28;;;;;;;;;;;;;;;15.98;83.36;100944.91;4186650;28;20015;-64
2023/06/18 00:05:31;;;;;;;;;;;;;;;15.98;83.58;100937.56;4186263;28;20208;-63
2023/06/18 00:07:33;;;;;;;;;;;;;;;15.97;83.31;100937.75;4186461;28;19960;-62
2023/06/18 00:09:35;;;;;;;;;;;;;;;15.97;83.62;100940.47;4186037;28;20012;-63
2023/06/18 00:11:37;;;;;;;;;;;;;;;15.97;83.55;100937.75;4186452;28;20024;-62
2023/06/18 00:13:39;;;;;;;;;;;;;;;15.96;83.22;100941.56;4186601;28;20031;-62
2023/06/18 00:15:41;;;;;;;;;;;;;;;15.93;83.17;100933.78;4185691;28;20028;-63
2023/06/18 00:17:43;;;;;;;;;;;;;;;15.89;83.21;100935.25;4186586;28;19924;-63
2023/06/18 00:19:45;;;;;;;;;;;;;;;15.87;83.28;100932.72;4185674;28;19968;-63
2023/06/18 00:21:49;;;;;;;;;;;;;;;15.89;83.15;100938.78;4187230;28;20023;-64
2023/06/18 00:23:51;;;;;;;;;;;;;;;15.92;82.78;100935.66;4186359;28;20047;-65
2023/06/18 00:25:53;;;;;;;;;;;;;;;15.90;82.46;100926.88;4188627;28;20601;-64
2023/06/18 00:27:55;;;;;;;;;;;;;;;15.86;82.62;100936.47;4189849;28;19948;-66
2023/06/18 00:29:57;;;;;;;;;;;;;;;15.80;82.88;100938.16;4189842;28;20016;-64
2023/06/18 00:31:59;;;;;;;;;;;;;;;15.74;82.91;100932.69;4189834;28;20015;-65
2023/06/18 00:34:05;;;;;;;;;;;;;;;15.73;83.29;100940.00;4189382;28;21181;-67
2023/06/18 00:36:08;;;;;;;;;;;;;;;15.72;83.15;100941.06;4190584;28;19997;-63
2023/06/18 00:38:16;;;;;;;;;;;;;;;15.72;83.30;100934.75;4222047;28;20330;-63
2023/06/18 00:40:18;;;;;;;;;;;;;;;15.71;82.80;100931.19;4189682;28;20443;-63
2023/06/18 00:42:21;;;;;;;;;;;;;;;15.70;82.83;100932.25;4221854;28;20079;-64
2023/06/18 00:44:24;;;;;;;;;;;;;;;15.62;82.71;100933.28;4221772;28;20018;-63
2023/06/18 00:46:26;;;;;;;;;;;;;;;15.53;83.26;100931.78;4189476;28;20471;-64
2023/06/18 00:48:31;;;;;;;;;;;;;;;15.51;83.86;100931.16;4189258;28;20011;-64
2023/06/18 00:50:36;;;;;;;;;;;;;;;15.53;84.13;100936.38;4189114;28;19999;-64
2023/06/18 00:52:38;;;;;;;;;;;;;;;15.54;83.62;100933.47;4188636;28;20521;-64
2023/06/18 00:54:42;;;;;;;;;;;;;;;15.52;83.39;100929.25;4187562;28;20027;-64
2023/06/18 00:56:50;;;;;;;;;;;;;;;15.50;83.51;100933.03;4189617;28;20011;-65
2023/06/18 00:58:52;;;;;;;;;;;;;;;15.48;83.56;100929.66;4189393;28;20023;-64
2023/06/18 01:00:54;;;;;;;;;;;;;;;15.49;83.88;100930.53;4187804;28;20020;-64
2023/06/18 01:02:56;;;;;;;;;;;;;;;15.54;83.40;100925.28;4204330;28;20503;-64
2023/06/18 01:04:59;;;;;;;;;;;;;;;15.54;83.07;100925.28;4203828;28;20019;-65
2023/06/18 01:07:02;;;;;;;;;;;;;;;15.46;82.83;100925.50;4189727;28;20024;-64
2023/06/18 01:09:04;;;;;;;;;;;;;;;15.35;83.12;100924.19;4188155;28;20339;-64
2023/06/18 01:11:08;;;;;;;;;;;;;;;15.28;83.25;100926.03;4223116;27;20046;-64
2023/06/18 01:13:10;;;;;;;;;;;;;;;15.23;83.98;100932.09;4183831;28;20347;-64
2023/06/18 01:15:19;;;;;;;;;;;;;;;15.25;84.22;100929.16;4188225;28;20039;-64
2023/06/18 01:17:21;;;;;;;;;;;;;;;15.25;84.36;100927.31;4188474;28;20056;-64
2023/06/18 01:19:28;;;;;;;;;;;;;;;15.29;84.37;100936.72;4185498;28;19925;-64
2023/06/18 01:21:31;;;;;;;;;;;;;;;15.31;84.22;100939.25;4186977;28;20019;-64
2023/06/18 01:23:35;;;;;;;;;;;;;;;15.25;84.10;100934.59;4188424;28;20023;-63
2023/06/18 01:25:37;;;;;;;;;;;;;;;15.17;84.01;100934.78;4172381;28;20012;-63
2023/06/18 01:27:41;;;;;;;;;;;;;;;15.07;84.56;100948.78;4186694;28;20017;-64
2023/06/18 01:29:43;;;;;;;;;;;;;;;14.97;84.63;100938.28;4203886;28;20011;-64
2023/06/18 01:31:45;;;;;;;;;;;;;;;14.93;85.32;100939.72;4187419;28;20059;-64
2023/06/18 01:33:53;;;;;;;;;;;;;;;14.90;85.88;100935.50;4188253;28;20011;-64
2023/06/18 01:35:56;;;;;;;;;;;;;;;14.90;86.62;100938.22;4188008;28;20335;-64
2023/06/18 01:38:15;;;;;;;;;;;;;;;14.90;86.88;100931.94;4182670;28;20039;-64
2023/06/18 01:40:21;;;;;;;;;;;;;;;14.88;86.84;100940.31;4196788;28;19955;-64
2023/06/18 01:42:23;;;;;;;;;;;;;;;14.83;87.04;100937.34;4185173;28;20087;-64
2023/06/18 01:44:27;;;;;;;;;;;;;;;14.79;87.07;100933.34;4201372;28;20020;-64
2023/06/18 01:46:31;;;;;;;;;;;;;;;14.76;87.71;100931.88;4187986;28;20142;-65
2023/06/18 01:48:35;;;;;;;;;;;;;;;14.81;88.44;100931.28;4187299;28;20023;-64
2023/06/18 01:50:38;;;;;;;;;;;;;;;14.84;88.56;100935.47;4188455;27;20031;-64
2023/06/18 01:52:41;;;;;;;;;;;;;;;14.89;88.70;100938.41;4187428;28;20019;-64
2023/06/18 01:54:44;;;;;;;;;;;;;;;14.98;88.86;100942.66;4187716;28;20044;-64
2023/06/18 01:56:46;;;;;;;;;;;;;;;15.04;88.06;100941.84;4170547;28;20008;-64
2023/06/18 01:58:48;;;;;;;;;;;;;;;15.06;87.65;100937.06;4219122;28;20027;-64
2023/06/18 02:00:52;;;;;;;;;;;;;;;15.05;87.35;100948.16;4186426;28;19951;-64
2023/06/18 02:02:57;;;;;;;;;;;;;;;15.00;86.73;100951.47;4186485;28;20016;-63
2023/06/18 02:05:01;;;;;;;;;;;;;;;14.94;86.61;100952.28;4187620;28;20023;-64
2023/06/18 02:07:03;;;;;;;;;;;;;;;14.90;86.91;100953.69;4187005;28;20016;-64
2023/06/18 02:09:05;;;;;;;;;;;;;;;14.84;86.67;100952.63;4185324;28;20020;-63
2023/06/18 02:11:10;;;;;;;;;;;;;;;14.78;86.84;100962.44;4188138;28;20020;-63
2023/06/18 02:13:13;;;;;;;;;;;;;;;14.71;87.34;100966.97;4188241;28;20016;-63
2023/06/18 02:15:15;;;;;;;;;;;;;;;14.67;87.64;100964.84;4187791;28;20034;-63
2023/06/18 02:17:19;;;;;;;;;;;;;;;14.69;88.03;100963.63;4188243;28;20092;-62
2023/06/18 02:19:21;;;;;;;;;;;;;;;14.73;88.11;100967.63;4202383;28;20350;-61
2023/06/18 02:21:23;;;;;;;;;;;;;;;14.75;88.27;100970.16;4220246;28;19928;-63
2023/06/18 02:23:25;;;;;;;;;;;;;;;14.77;88.25;100968.88;4168524;28;20016;-63
2023/06/18 02:25:32;;;;;;;;;;;;;;;14.83;87.97;100983.59;4185118;28;20023;-64
2023/06/18 02:27:34;;;;;;;;;;;;;;;14.87;87.56;100984.84;4184657;28;20023;-64
2023/06/18 02:29:36;;;;;;;;;;;;;;;14.85;87.07;100978.78;4187052;28;20016;-64
2023/06/18 02:31:38;;;;;;;;;;;;;;;14.82;87.07;100973.72;4186719;28;20027;-64
2023/06/18 02:33:42;;;;;;;;;;;;;;;14.78;87.33;100981.47;4186403;28;20050;-64
2023/06/18 02:35:44;;;;;;;;;;;;;;;14.78;87.24;100975.19;4186708;28;20185;-64
2023/06/18 02:37:46;;;;;;;;;;;;;;;14.78;87.45;100967.88;4202390;28;20051;-63
2023/06/18 02:39:49;;;;;;;;;;;;;;;14.80;87.37;100969.56;4219273;28;20028;-63
2023/06/18 02:41:51;;;;;;;;;;;;;;;14.78;87.05;100967.88;4169820;28;20445;-64
2023/06/18 02:43:53;;;;;;;;;;;;;;;14.76;87.34;100964.50;4186375;28;20019;-63
2023/06/18 02:45:55;;;;;;;;;;;;;;;14.74;87.45;100974.72;4187755;28;20050;-64
2023/06/18 02:47:58;;;;;;;;;;;;;;;14.71;87.54;100975.13;4168280;28;20437;-65
2023/06/18 02:50:02;;;;;;;;;;;;;;;14.68;88.17;100974.69;4186555;28;20447;-64
2023/06/18 02:52:05;;;;;;;;;;;;;;;14.67;88.74;100971.13;4183080;28;20012;-64
2023/06/18 02:54:07;;;;;;;;;;;;;;;14.72;89.04;100975.97;4183537;28;20012;-64
2023/06/18 02:56:11;;;;;;;;;;;;;;;14.76;88.46;100969.94;4186905;28;20417;-64
2023/06/18 02:58:20;;;;;;;;;;;;;;;14.80;88.28;100969.56;4186783;28;20027;-64
2023/06/18 03:00:22;;;;;;;;;;;;;;;14.81;87.96;100968.50;4186824;28;20020;-64
2023/06/18 03:02:25;;;;;;;;;;;;;;;14.82;87.75;100968.28;4202863;28;19929;-64
2023/06/18 03:04:30;;;;;;;;;;;;;;;14.82;87.31;100964.75;4186601;28;20060;-64
2023/06/18 03:06:35;;;;;;;;;;;;;;;14.79;86.89;100957.81;4181755;28;20011;-64
2023/06/18 03:08:37;;;;;;;;;;;;;;;14.76;86.75;100964.50;4201836;28;20011;-64
2023/06/18 03:10:41;;;;;;;;;;;;;;;14.73;86.63;100964.06;4218185;27;20023;-64
2023/06/18 03:12:43;;;;;;;;;;;;;;;14.70;86.58;100959.00;4187455;28;20013;-64
2023/06/18 03:15:05;;;;;;;;;;;;;;;14.70;86.60;100964.44;4186306;28;20070;-63
2023/06/18 03:17:07;;;;;;;;;;;;;;;14.70;86.84;100959.88;4184685;28;20024;-63
2023/06/18 03:19:09;;;;;;;;;;;;;;;14.71;86.58;100975.13;4217971;28;20087;-63
2023/06/18 03:21:15;;;;;;;;;;;;;;;14.70;86.62;100972.59;4185847;28;20022;-63
2023/06/18 03:23:18;;;;;;;;;;;;;;;14.69;86.54;100969.06;4202320;28;20031;-64
2023/06/18 03:25:23;;;;;;;;;;;;;;;14.66;86.17;100960.47;4184637;28;20037;-63
2023/06/18 03:27:28;;;;;;;;;;;;;;;14.62;86.33;100962.72;4186621;28;20362;-63
2023/06/18 03:29:31;;;;;;;;;;;;;;;14.56;87.04;100964.34;4185500;28;20008;-63
2023/06/18 03:31:35;;;;;;;;;;;;;;;14.55;87.23;100964.53;4185563;28;20039;-64
2023/06/18 03:33:40;;;;;;;;;;;;;;;14.59;87.60;100972.09;4170098;28;20015;-63
2023/06/18 03:35:46;;;;;;;;;;;;;;;14.65;87.23;100970.47;4186185;28;20485;-64
2023/06/18 03:37:48;;;;;;;;;;;;;;;14.69;87.10;100968.22;4186351;28;20438;-64
2023/06/18 03:39:53;;;;;;;;;;;;;;;14.70;87.01;100961.72;4185239;28;20019;-65
2023/06/18 03:41:58;;;;;;;;;;;;;;;14.66;86.79;100963.19;4201718;28;19970;-63
2023/06/18 03:44:00;;;;;;;;;;;;;;;14.64;87.00;100957.94;4185992;28;19981;-64
2023/06/18 03:46:03;;;;;;;;;;;;;;;14.65;87.37;100962.31;4219077;28;20030;-63
2023/06/18 03:48:06;;;;;;;;;;;;;;;14.66;87.46;100961.28;4169210;28;20761;-65
2023/06/18 03:50:15;;;;;;;;;;;;;;;14.70;87.55;100961.72;4168865;28;20021;-64
2023/06/18 03:52:18;;;;;;;;;;;;;;;14.73;87.60;100962.19;4218278;28;20019;-62
2023/06/18 03:54:19;;;;;;;;;;;;;;;14.74;88.01;100973.91;4186623;28;19933;-63
2023/06/18 03:56:26;;;;;;;;;;;;;;;14.76;88.30;100969.94;4185304;28;20016;-63
2023/06/18 03:58:29;;;;;;;;;;;;;;;14.80;88.71;100964.94;4183450;28;20016;-64
2023/06/18 04:00:32;;;;;;;;;;;;;;;14.86;88.49;100968.72;4183650;28;20016;-64
2023/06/18 04:02:34;;;;;;;;;;;;;;;14.91;88.55;100969.81;4185598;28;20054;-64
2023/06/18 04:04:36;;;;;;;;;;;;;;;14.97;88.95;100965.47;4186014;28;19928;-64
2023/06/18 04:06:39;;;;;;;;;;;;;;;15.04;88.96;100969.03;4185910;28;20015;-64
2023/06/18 04:08:41;;;;;;;;;;;;;;;15.07;88.79;100970.53;4183103;28;20027;-65
2023/06/18 04:10:48;;;;;;;;;;;;;;;15.12;88.85;100977.06;4184706;28;20509;-64
2023/06/18 04:12:51;;;;;;;;;;;;;;;15.14;88.82;100971.44;4200617;28;20378;-64
2023/06/18 04:14:53;;;;;;;;;;;;;;;15.13;89.26;100973.28;4200700;28;20015;-65
2023/06/18 04:16:55;;;;;;;;;;;;;;;15.17;89.63;100978.31;4217810;28;19931;-63
2023/06/18 04:18:57;;;;;;;;;;;;;;;15.19;89.98;100976.22;4185398;28;20023;-64
2023/06/18 04:20:59;;;;;;;;;;;;;;;15.19;89.95;100974.38;4180324;28;20029;-64
2023/06/18 04:23:02;;;;;;;;;;;;;;;15.22;90.08;100968.53;4217945;28;20019;-64
2023/06/18 04:25:05;;;;;;;;;;;;;;;15.25;90.45;100972.69;4183326;28;20509;-64
2023/06/18 04:27:08;;;;;;;;;;;;;;;15.30;90.37;100979.22;4167669;28;20338;-64
2023/06/18 04:29:13;;;;;;;;;;;;;;;15.32;90.52;100982.56;4167317;28;20040;-65
2023/06/18 04:31:15;;;;;;;;;;;;;;;15.35;90.89;100989.50;4168563;28;20023;-65
2023/06/18 04:33:17;;;;;;;;;;;;;;;15.37;90.81;100986.59;4215170;28;20019;-64
2023/06/18 04:35:20;;;;;;;;;;;;;;;15.39;90.98;100985.34;4184458;28;20367;-66
2023/06/18 04:37:22;;;;;;;;;;;;;;;15.41;91.11;100988.69;4217074;28;20010;-65
2023/06/18 04:39:24;;;;;;;;;;;;;;;15.42;91.54;100987.66;4185497;28;20032;-66
2023/06/18 04:41:26;;;;;;;;;;;;;;;15.44;91.96;100988.28;4182764;28;20040;-65
2023/06/18 04:43:28;;;;;;;;;;;;;;;15.46;91.99;100982.66;4200729;28;20031;-65
2023/06/18 04:45:32;;;;;;;;;;;;;;;15.50;92.23;100982.03;4200409;28;20402;-65
2023/06/18 04:47:35;;;;;;;;;;;;;;;15.57;92.23;100989.41;4182307;28;20019;-66
2023/06/18 04:49:37;;;;;;;;;;;;;;;15.60;92.48;100976.19;4199664;28;20582;-64
2023/06/18 04:51:39;;;;;;;;;;;;;;;15.65;92.44;100978.31;4179921;28;20012;-64
2023/06/18 04:53:41;;;;;;;;;;;;;;;15.70;92.53;100985.88;4216374;28;20022;-65
2023/06/18 04:55:44;;;;;;;;;;;;;;;15.74;92.74;100982.53;4184763;28;20036;-64
2023/06/18 04:57:46;;;;;;;;;;;;;;;15.79;92.64;100984.66;4199129;28;20488;-64
2023/06/18 04:59:48;;;;;;;;;;;;;;;15.84;92.49;100982.16;4185508;28;20020;-65
2023/06/18 05:01:52;;;;;;;;;;;;;;;15.88;92.56;100988.03;4182662;28;20031;-64
2023/06/18 05:03:54;;;;;;;;;;;;;;;15.92;92.50;100986.59;4184241;28;20028;-65
2023/06/18 05:05:56;;;;;;;;;;;;;;;15.97;92.79;100982.19;4185449;28;19964;-65
2023/06/18 05:07:59;;;;;;;;;;;;;;;16.02;92.45;100993.31;4184931;28;20036;-65
2023/06/18 05:10:02;;;;;;;;;;;;;;;16.06;92.12;100990.16;4199331;28;20003;-65
2023/06/18 05:12:07;;;;;;;;;;;;;;;16.09;91.93;100995.22;4187467;28;20020;-64
2023/06/18 05:14:09;;;;;;;;;;;;;;;16.12;92.12;100992.91;4186394;28;20011;-64
2023/06/18 05:16:12;;;;;;;;;;;;;;;16.17;91.97;100987.66;4188233;28;20035;-65
2023/06/18 05:18:19;;;;;;;;;;;;;;;16.23;91.75;100990.63;4203484;28;20023;-65
2023/06/18 05:20:21;;;;;;;;;;;;;;;16.29;91.79;100987.06;4202112;28;20003;-66
2023/06/18 05:22:23;;;;;;;;;;;;;;;16.34;91.85;100990.00;4187367;28;20011;-65
2023/06/18 05:24:25;;;;;;;;;;;;;;;16.37;91.74;100978.66;4186376;28;19999;-65
2023/06/18 05:26:27;;;;;;;;;;;;;;;16.42;91.38;100987.03;4187110;28;20561;-66
2023/06/18 05:28:31;;;;;;;;;;;;;;;16.46;91.51;100991.03;4219932;28;20034;-66
2023/06/18 05:30:35;;;;;;;;;;;;;;;16.52;91.22;100994.78;4186264;28;20029;-66
2023/06/18 05:32:37;;;;;;;;;;;;;;;16.56;91.21;100991.44;4185637;28;20039;-65
2023/06/18 05:34:44;;;;;;;;;;;;;;;16.61;90.98;100998.16;4218731;28;20023;-66
2023/06/18 05:36:46;;;;;;;;;;;;;;;16.64;90.62;100987.66;4187077;28;20033;-66
2023/06/18 05:38:49;;;;;;;;;;;;;;;16.68;90.47;100993.56;4187524;28;20632;-70
2023/06/18 05:40:53;;;;;;;;;;;;;;;16.70;89.37;100992.28;4186511;28;20025;-69
2023/06/18 05:42:56;;;;;;;;;;;;;;;16.74;88.90;100996.25;4187044;28;20024;-70
2023/06/18 05:44:58;;;;;;;;;;;;;;;16.79;88.92;101001.09;4219268;28;20031;-67
2023/06/18 05:47:01;;;;;;;;;;;;;;;16.84;89.12;100997.72;4167773;28;20080;-69
2023/06/18 05:49:04;;;;;;;;;;;;;;;16.87;88.72;100994.59;4168493;28;20087;-69
2023/06/18 05:51:08;;;;;;;;;;;;;;;16.91;88.28;100993.09;4202713;28;20031;-70
2023/06/18 05:53:10;;;;;;;;;;;;;;;16.94;88.02;100992.69;4187864;28;20041;-69
2023/06/18 05:55:12;;;;;;;;;;;;;;;16.98;87.63;100996.66;4185352;28;20020;-69
2023/06/18 05:57:15;;;;;;;;;;;;;;;17.02;87.27;100997.06;4219470;28;20024;-70
2023/06/18 05:59:17;;;;;;;;;;;;;;;17.05;86.74;100996.66;4186622;28;20023;-69
2023/06/18 06:01:24;;;;;;;;;;;;;;;17.08;86.83;100998.94;4187086;28;20023;-69
2023/06/18 06:03:27;;;;;;;;;;;;;;;17.14;86.34;101008.19;4185807;28;20015;-69
2023/06/18 06:05:30;;;;;;;;;;;;;;;17.18;86.07;101012.13;4185984;28;20019;-69
2023/06/18 06:07:33;;;;;;;;;;;;;;;17.21;85.75;101004.38;4188615;28;19986;-70
2023/06/18 06:09:36;;;;;;;;;;;;;;;17.22;84.05;101000.59;4200969;28;20349;-69
2023/06/18 06:11:38;;;;;;;;;;;;;;;17.27;83.51;101002.66;4203425;28;20026;-69
2023/06/18 06:13:42;;;;;;;;;;;;;;;17.29;82.60;101000.59;4185293;28;20035;-66
2023/06/18 06:15:46;;;;;;;;;;;;;;;17.32;81.66;100999.28;4185656;28;20949;-69
2023/06/18 06:17:48;;;;;;;;;;;;;;;17.35;82.21;100998.88;4184635;28;20479;-68
2023/06/18 06:19:54;;;;;;;;;;;;;;;17.39;82.79;101000.13;4218913;28;20371;-68
2023/06/18 06:21:56;;;;;;;;;;;;;;;17.42;83.01;101002.41;4216011;28;20019;-69
2023/06/18 06:23:59;;;;;;;;;;;;;;;17.46;82.86;101003.66;4181805;28;20023;-69
2023/06/18 06:26:02;;;;;;;;;;;;;;;17.48;82.01;101013.31;4206288;28;20026;-68
2023/06/18 06:28:04;;;;;;;;;;;;;;;17.50;80.77;101015.00;4186046;28;19925;-71
2023/06/18 06:30:10;;;;;;;;;;;;;;;17.54;81.11;101021.69;4168040;28;20059;-69
2023/06/18 06:32:12;;;;;;;;;;;;;;;17.54;79.91;101021.69;4185940;28;20464;-69
2023/06/18 06:34:14;;;;;;;;;;;;;;;17.58;79.98;101021.03;4186478;28;20007;-68
2023/06/18 06:36:17;;;;;;;;;;;;;;;17.62;79.92;101026.91;4217595;28;20503;-70
2023/06/18 06:38:19;;;;;;;;;;;;;;;17.63;79.28;101025.84;4202918;28;20007;-69
2023/06/18 06:40:22;;;;;;;;;;;;;;;17.65;79.00;101026.50;4186108;28;20015;-68
2023/06/18 06:42:24;;;;;;;;;;;;;;;17.65;78.41;101027.31;4171499;28;20031;-69
2023/06/18 06:44:46;;;;;;;;;;;;;;;17.68;78.58;101026.06;4184849;28;20012;-71
2023/06/18 06:47:00;;;;;;;;;;;;;;;17.72;78.19;101032.75;4185718;28;20019;-70
2023/06/18 06:49:23;;;;;;;;;;;;;;;17.78;78.75;101022.84;4186122;28;20379;-69
2023/06/18 06:51:41;;;;;;;;;;;;;;;17.80;77.70;101035.22;4186592;28;20015;-68
2023/06/18 06:53:47;;;;;;;;;;;;;;;17.81;76.38;101028.72;4201439;28;20019;-69
2023/06/18 06:55:51;;;;;;;;;;;;;;;17.82;75.55;101024.94;4186254;28;20023;-70
2023/06/18 06:57:56;;;;;;;;;;;;;;;17.83;75.39;101028.50;4183946;28;20059;-69
2023/06/18 06:59:59;;;;;;;;;;;;;;;17.84;75.05;101024.72;4184297;28;20028;-69
2023/06/18 07:02:01;;;;;;;;;;;;;;;17.85;74.79;101026.38;4185711;28;20012;-68
2023/06/18 07:04:03;;;;;;;;;;;;;;;17.87;74.74;101023.41;4185360;28;20015;-69
2023/06/18 07:06:06;;;;;;;;;;;;;;;17.88;74.83;101031.44;4186434;28;20412;-68
2023/06/18 07:08:08;;;;;;;;;;;;;;;17.93;75.45;101028.91;4186619;28;20027;-68
2023/06/18 07:10:10;;;;;;;;;;;;;;;17.96;74.72;101030.34;4185363;28;20032;-68
2023/06/18 07:12:14;;;;;;;;;;;;;;;17.97;74.07;101026.56;4187368;28;20331;-66
2023/06/18 07:14:16;;;;;;;;;;;;;;;17.98;73.81;101028.25;4183755;28;20011;-69
2023/06/18 07:16:18;;;;;;;;;;;;;;;17.99;74.26;101018.97;4169087;28;20020;-68
2023/06/18 07:18:20;;;;;;;;;;;;;;;18.02;74.02;101026.72;4185514;28;20058;-69
2023/06/18 07:20:22;;;;;;;;;;;;;;;18.06;73.90;101027.16;4185822;28;20011;-66
2023/06/18 07:22:24;;;;;;;;;;;;;;;18.08;73.74;101027.75;4185298;28;20023;-67
2023/06/18 07:24:26;;;;;;;;;;;;;;;18.10;73.28;101014.69;4185260;28;20024;-67
2023/06/18 07:26:28;;;;;;;;;;;;;;;18.15;73.28;101021.19;4184162;28;20008;-66
2023/06/18 07:28:31;;;;;;;;;;;;;;;18.15;72.81;101018.47;4186104;28;20024;-66
2023/06/18 07:30:33;;;;;;;;;;;;;;;18.15;73.06;101013.00;4184613;28;19925;-67
2023/06/18 07:32:35;;;;;;;;;;;;;;;18.18;72.48;101017.16;4185613;28;20035;-67
2023/06/18 07:34:37;;;;;;;;;;;;;;;18.18;72.55;101017.16;4185123;28;20020;-67
2023/06/18 07:36:39;;;;;;;;;;;;;;;18.23;73.08;101006.41;4184977;28;20559;-68
2023/06/18 07:38:41;;;;;;;;;;;;;;;18.28;72.60;101011.22;4183246;28;20723;-69
2023/06/18 07:40:43;;;;;;;;;;;;;;;18.29;72.15;101015.63;4185846;28;20015;-68
2023/06/18 07:42:45;;;;;;;;;;;;;;;18.29;72.08;101012.88;4184468;28;20031;-69
2023/06/18 07:44:48;;;;;;;;;;;;;;;18.31;72.16;101010.78;4184888;28;20019;-66
2023/06/18 07:46:50;;;;;;;;;;;;;;;18.31;72.03;101013.50;4187840;28;20023;-68
2023/06/18 07:48:52;;;;;;;;;;;;;;;18.32;71.78;101024.22;4184753;28;20359;-67
2023/06/18 07:50:54;;;;;;;;;;;;;;;18.33;71.49;101016.84;4186129;28;20457;-67
2023/06/18 07:52:56;;;;;;;;;;;;;;;18.34;71.47;101019.38;4185590;28;20020;-67
2023/06/18 07:54:58;;;;;;;;;;;;;;;18.35;71.61;101017.47;4217505;28;20020;-67
2023/06/18 07:57:00;;;;;;;;;;;;;;;18.36;71.30;101016.41;4185062;28;20027;-67
2023/06/18 07:59:02;;;;;;;;;;;;;;;18.37;71.46;101020.84;4185332;28;20022;-67
2023/06/18 08:01:06;;;;;;;;;;;;;;;18.40;71.33;101014.06;4186472;28;20023;-67
2023/06/18 08:03:08;;;;;;;;;;;;;;;18.39;71.33;101015.97;4184649;28;20011;-66
2023/06/18 08:05:11;;;;;;;;;;;;;;;18.40;71.47;101011.31;4184915;28;20422;-67
2023/06/18 08:07:13;;;;;;;;;;;;;;;18.42;71.33;101018.25;4183981;28;20356;-65
2023/06/18 08:09:15;;;;;;;;;;;;;;;18.48;71.59;101011.03;4184506;28;20044;-66
2023/06/18 08:11:17;;;;;;;;;;;;;;;18.51;70.87;101013.34;4184373;28;20386;-66
2023/06/18 08:13:19;;;;;;;;;;;;;;;18.52;70.88;101004.09;4185329;28;20027;-65
2023/06/18 08:15:21;;;;;;;;;;;;;;;18.54;70.65;100996.47;4185322;28;20011;-66
2023/06/18 08:17:25;;;;;;;;;;;;;;;18.54;70.50;101005.53;4185439;28;20851;-66
2023/06/18 08:19:27;;;;;;;;;;;;;;;18.58;70.76;101007.84;4184576;28;20023;-66
2023/06/18 08:21:29;;;;;;;;;;;;;;;18.64;70.42;101012.41;4183485;28;20015;-65
2023/06/18 08:23:31;;;;;;;;;;;;;;;18.70;70.20;101014.25;4184862;28;20486;-67
2023/06/18 08:25:33;;;;;;;;;;;;;;;18.71;70.05;101013.16;4185031;28;20023;-66
2023/06/18 08:27:35;;;;;;;;;;;;;;;18.72;69.91;101007.47;4185084;28;20049;-65
2023/06/18 08:29:37;;;;;;;;;;;;;;;18.73;69.77;101011.88;4185831;28;20075;-65
2023/06/18 08:31:40;;;;;;;;;;;;;;;18.75;69.89;101010.84;4186036;28;19979;-64
2023/06/18 08:33:44;;;;;;;;;;;;;;;18.77;69.50;101014.19;4184105;28;20024;-66
2023/06/18 08:35:46;;;;;;;;;;;;;;;18.78;69.70;101008.47;4185338;28;20015;-66
2023/06/18 08:37:48;;;;;;;;;;;;;;;18.82;69.54;101006.13;4185096;28;20023;-66
2023/06/18 08:39:50;;;;;;;;;;;;;;;18.85;69.42;101000.22;4199824;28;20011;-65
2023/06/18 08:41:52;;;;;;;;;;;;;;;18.88;69.11;101011.56;4184906;28;20612;-64
2023/06/18 08:43:54;;;;;;;;;;;;;;;18.95;68.94;101011.50;4184377;28;20011;-67
2023/06/18 08:45:56;;;;;;;;;;;;;;;18.97;68.58;101005.81;4185611;28;20023;-66
2023/06/18 08:47:59;;;;;;;;;;;;;;;19.01;68.32;101007.00;4187150;28;20327;-65
2023/06/18 08:50:04;;;;;;;;;;;;;;;19.06;68.41;101004.47;4188345;28;20034;-66
2023/06/18 08:52:06;;;;;;;;;;;;;;;19.11;67.88;101006.47;4188427;28;19967;-67
2023/06/18 08:54:09;;;;;;;;;;;;;;;19.12;67.71;100991.75;4187505;28;20355;-66
2023/06/18 08:56:11;;;;;;;;;;;;;;;19.07;67.75;101000.63;4187353;28;20020;-66
2023/06/18 08:58:15;;;;;;;;;;;;;;;19.03;68.22;101003.00;4188012;28;20016;-67
2023/06/18 09:00:17;;;;;;;;;;;;;;;19.04;67.98;101003.81;4187108;28;20015;-67
2023/06/18 09:02:21;;;;;;;;;;;;;;;19.02;68.13;100995.00;4187092;28;20019;-67
2023/06/18 09:04:23;;;;;;;;;;;;;;;19.03;67.68;100996.69;4187150;28;20020;-67
2023/06/18 09:06:26;;;;;;;;;;;;;;;19.05;67.67;100994.56;4188609;28;20020;-68
2023/06/18 09:08:28;;;;;;;;;;;;;;;19.06;67.68;100994.34;4186462;28;20027;-68
2023/06/18 09:10:30;;;;;;;;;;;;;;;19.10;67.53;100997.44;4185970;28;20016;-66
2023/06/18 09:12:32;;;;;;;;;;;;;;;19.12;67.31;100995.31;4186268;28;19931;-66
2023/06/18 09:14:34;;;;;;;;;;;;;;;19.13;67.48;100999.72;4188890;28;20058;-64
2023/06/18 09:16:36;;;;;;;;;;;;;;;19.14;67.16;100997.81;4187733;28;20047;-66
2023/06/18 09:18:38;;;;;;;;;;;;;;;19.13;67.12;100999.72;4188718;28;20335;-66
2023/06/18 09:20:40;;;;;;;;;;;;;;;19.12;67.22;100992.56;4187373;28;20035;-66
2023/06/18 09:22:49;;;;;;;;;;;;;;;19.12;67.28;100999.94;4187168;28;20026;-65
2023/06/18 09:24:56;;;;;;;;;;;;;;;19.12;67.28;100994.47;4187354;28;20031;-67
2023/06/18 09:27:00;;;;;;;;;;;;;;;19.12;67.27;100994.47;4187273;28;20007;-66
2023/06/18 09:29:03;;;;;;;;;;;;;;;19.12;67.18;101002.69;4187040;28;20044;-67
2023/06/18 09:31:06;;;;;;;;;;;;;;;19.13;66.95;101001.63;4188337;28;20518;-67
2023/06/18 09:33:08;;;;;;;;;;;;;;;19.14;66.95;101004.16;4186617;28;19931;-67
2023/06/18 09:35:13;;;;;;;;;;;;;;;19.14;66.84;101004.16;4183751;28;20470;-67
2023/06/18 09:37:16;;;;;;;;;;;;;;;19.16;66.63;101004.75;4186258;28;19928;-67
2023/06/18 09:39:20;;;;;;;;;;;;;;;19.19;66.47;100996.06;4186482;28;20027;-67
2023/06/18 09:41:22;;;;;;;;;;;;;;;19.21;66.41;101002.16;4187142;28;20019;-67
2023/06/18 09:43:24;;;;;;;;;;;;;;;19.21;66.24;100999.41;4185878;28;20015;-67
2023/06/18 09:45:27;;;;;;;;;;;;;;;19.23;66.16;100994.56;4186852;28;20497;-66
2023/06/18 09:47:29;;;;;;;;;;;;;;;19.25;65.94;100991.59;4219857;28;20372;-67
2023/06/18 09:49:31;;;;;;;;;;;;;;;19.25;65.97;100986.94;4187534;28;20016;-68
2023/06/18 09:51:38;;;;;;;;;;;;;;;19.29;65.62;100995.53;4188512;28;20028;-67
2023/06/18 09:53:40;;;;;;;;;;;;;;;19.30;65.46;100985.44;4187258;28;19944;-67
2023/06/18 09:55:43;;;;;;;;;;;;;;;19.32;65.43;100986.03;4186867;28;20007;-65
2023/06/18 09:57:49;;;;;;;;;;;;;;;19.34;65.18;100983.91;4186738;28;20016;-66
2023/06/18 10:00:00;;;;;;;;;;;;;;;19.37;65.30;100983.44;4187385;28;20012;-67
2023/06/18 10:02:02;;;;;;;;;;;;;;;19.38;65.18;100990.59;4187438;28;20439;-67
2023/06/18 10:04:04;;;;;;;;;;;;;;;19.39;65.13;100984.06;4187334;28;20374;-67
2023/06/18 10:06:10;;;;;;;;;;;;;;;19.41;65.00;100988.22;4187882;28;20027;-67
2023/06/18 10:08:12;;;;;;;;;;;;;;;19.43;64.78;100988.00;4188233;28;20044;-67
2023/06/18 10:10:14;;;;;;;;;;;;;;;19.43;64.84;100988.81;4187305;28;20016;-66
2023/06/18 10:12:18;;;;;;;;;;;;;;;19.44;64.71;100987.78;4187403;28;20023;-67
2023/06/18 10:14:21;;;;;;;;;;;;;;;19.43;64.72;100983.34;4186973;28;19924;-67
2023/06/18 10:16:24;;;;;;;;;;;;;;;19.44;64.63;100982.28;4187539;28;20007;-67
2023/06/18 10:18:26;;;;;;;;;;;;;;;19.43;64.65;100986.09;4187445;28;20019;-67
2023/06/18 10:20:28;;;;;;;;;;;;;;;19.44;64.58;100986.94;4187066;28;20015;-66
2023/06/18 10:22:32;;;;;;;;;;;;;;;19.45;64.57;100985.84;4187772;28;20008;-66
2023/06/18 10:24:35;;;;;;;;;;;;;;;19.47;64.50;100991.09;4187762;28;20027;-66
2023/06/18 10:26:38;;;;;;;;;;;;;;;19.49;64.21;100991.72;4187279;28;20233;-67
2023/06/18 10:28:41;;;;;;;;;;;;;;;19.51;64.18;100990.41;4187038;28;20036;-66
2023/06/18 10:30:43;;;;;;;;;;;;;;;19.55;63.88;100991.63;4187210;28;20362;-68
2023/06/18 10:32:45;;;;;;;;;;;;;;;19.58;63.86;100984.88;4187653;28;20020;-67